createdAt,value
2017-07-28T05:31:38.707Z,120
2017-07-28T05:32:04.167Z,120
2017-07-28T05:32:29.643Z,140
2017-07-28T05:32:55.103Z,120
2017-07-28T05:33:20.577Z,125
2017-07-28T05:33:46.059Z,120
2017-07-28T05:34:11.512Z,135
2017-07-28T05:34:36.948Z,130
2017-07-28T05:35:02.425Z,120
2017-07-28T05:35:27.904Z,130
2017-07-28T05:35:53.342Z,130
2017-07-28T05:36:18.837Z,105
2017-07-28T05:36:44.295Z,110
2017-07-28T05:37:09.779Z,100
2017-07-28T05:37:35.241Z,70
2017-07-28T05:38:00.705Z,60
2017-07-28T05:38:26.167Z,55
2017-07-28T05:38:51.658Z,55
2017-07-28T05:39:17.139Z,55
2017-07-28T05:39:42.614Z,55
2017-07-28T05:40:08.073Z,50
2017-07-28T05:40:33.572Z,55
2017-07-28T05:40:59.017Z,55
2017-07-28T05:41:24.511Z,55
2017-07-28T05:41:50.009Z,60
2017-07-28T05:42:15.462Z,60
2017-07-28T05:42:40.936Z,65
2017-07-28T05:43:06.390Z,65
2017-07-28T05:43:31.861Z,75
2017-07-28T05:43:57.323Z,80
2017-07-28T05:44:22.865Z,85
2017-07-28T05:44:48.337Z,125
2017-07-28T05:45:13.782Z,100
2017-07-28T05:45:39.250Z,95
2017-07-28T05:46:04.716Z,115
2017-07-28T05:46:30.166Z,115
2017-07-28T05:46:55.650Z,125
2017-07-28T05:47:21.124Z,125
2017-07-28T05:47:46.607Z,120
2017-07-28T05:48:12.075Z,100
2017-07-28T05:48:37.542Z,90
2017-07-28T05:49:03.021Z,100
2017-07-28T05:49:28.486Z,130
2017-07-28T05:49:53.952Z,115
2017-07-28T05:50:19.456Z,95
2017-07-28T05:50:44.939Z,95
2017-07-28T05:51:10.423Z,105
2017-07-28T05:51:35.905Z,115
2017-07-28T05:52:01.382Z,120
2017-07-28T05:52:26.873Z,90
2017-07-28T05:52:52.382Z,85
2017-07-28T05:53:17.892Z,85
2017-07-28T05:53:43.352Z,90
2017-07-28T05:54:08.857Z,125
2017-07-28T05:54:34.356Z,130
2017-07-28T05:54:59.787Z,105
2017-07-28T05:55:25.284Z,155
2017-07-28T05:55:50.747Z,125
2017-07-28T05:56:16.219Z,110
2017-07-28T05:56:41.726Z,140
2017-07-28T05:57:07.205Z,135
2017-07-28T05:57:32.705Z,140
2017-07-28T05:57:58.155Z,130
2017-07-28T05:58:23.640Z,105
2017-07-28T05:58:49.086Z,85
2017-07-28T05:59:14.601Z,85
2017-07-28T05:59:40.067Z,90
2017-07-28T06:00:05.530Z,105
2017-07-28T06:00:31.013Z,95
2017-07-28T06:00:56.477Z,90
2017-07-28T06:01:21.969Z,85
2017-07-28T06:01:47.447Z,100
2017-07-28T06:02:12.919Z,85
2017-07-28T06:02:38.388Z,80
2017-07-28T06:03:03.816Z,80
2017-07-28T06:03:29.279Z,100
2017-07-28T06:03:54.749Z,90
2017-07-28T06:04:20.214Z,95
2017-07-28T06:04:45.676Z,100
2017-07-28T06:05:11.141Z,120
2017-07-28T06:05:36.603Z,100
2017-07-28T06:06:02.095Z,120
2017-07-28T06:06:27.531Z,105
2017-07-28T06:06:53.004Z,135
2017-07-28T06:07:18.498Z,130
2017-07-28T06:07:43.979Z,100
2017-07-28T06:08:09.481Z,115
2017-07-28T06:08:34.980Z,140
2017-07-28T06:09:00.471Z,140
2017-07-28T06:09:25.930Z,145
2017-07-28T06:09:51.449Z,100
2017-07-28T06:10:16.909Z,130
2017-07-28T06:10:42.361Z,105
2017-07-28T06:11:07.849Z,135
2017-07-28T06:11:33.329Z,140
2017-07-28T06:11:58.799Z,150
2017-07-28T06:12:24.349Z,145
2017-07-28T06:12:49.756Z,140
2017-07-28T06:13:15.212Z,145
2017-07-28T06:13:40.665Z,140
2017-07-28T06:14:06.148Z,135
2017-07-28T06:14:31.622Z,145
2017-07-28T06:14:57.122Z,130
2017-07-28T06:15:22.578Z,185
2017-07-28T06:15:48.040Z,160
2017-07-28T06:16:13.522Z,105
2017-07-28T06:16:39.018Z,90
2017-07-28T06:17:04.465Z,165
2017-07-28T06:17:29.936Z,170
2017-07-28T06:17:55.419Z,110
2017-07-28T06:18:20.937Z,170
2017-07-28T06:18:46.414Z,175
2017-07-28T06:19:11.904Z,170
2017-07-28T06:19:37.383Z,185
2017-07-28T06:20:02.829Z,180
2017-07-28T06:20:28.353Z,170
2017-07-28T06:20:53.805Z,165
2017-07-28T06:21:19.274Z,160
2017-07-28T06:21:44.773Z,170
2017-07-28T06:22:10.236Z,180
2017-07-28T06:23:18.935Z,200
2017-07-28T06:23:44.409Z,175
2017-07-28T06:24:09.888Z,185
2017-07-28T06:24:35.394Z,215
2017-07-28T06:25:00.823Z,235
2017-07-28T06:25:26.312Z,215
2017-07-28T06:25:51.814Z,205
2017-07-28T06:26:17.333Z,200
2017-07-28T06:26:42.783Z,220
2017-07-28T06:27:08.273Z,225
2017-07-28T06:27:33.744Z,220
2017-07-28T06:27:59.186Z,205
2017-07-28T06:28:24.685Z,180
2017-07-28T06:28:50.181Z,195
2017-07-28T06:29:15.632Z,200
2017-07-28T06:29:41.094Z,195
2017-07-28T06:30:06.584Z,180
2017-07-28T06:30:32.052Z,165
2017-07-28T06:30:57.526Z,150
2017-07-28T06:31:23.019Z,130
2017-07-28T06:31:48.487Z,130
2017-07-28T06:32:13.944Z,140
2017-07-28T06:32:39.428Z,160
2017-07-28T06:33:04.881Z,170
2017-07-28T06:33:30.370Z,185
2017-07-28T06:33:55.830Z,215
2017-07-28T06:34:21.308Z,210
2017-07-28T06:34:46.794Z,210
2017-07-28T06:35:12.257Z,185
2017-07-28T06:35:37.755Z,210
2017-07-28T06:36:03.200Z,195
2017-07-28T06:36:28.650Z,195
2017-07-28T06:36:54.107Z,185
2017-07-28T06:37:19.613Z,155
2017-07-28T06:37:45.086Z,165
2017-07-28T06:38:10.554Z,220
2017-07-28T06:38:36.038Z,255
2017-07-28T06:39:01.509Z,230
2017-07-28T06:39:26.999Z,210
2017-07-28T06:39:52.446Z,260
2017-07-28T06:40:17.904Z,195
2017-07-28T06:40:43.361Z,175
2017-07-28T06:41:08.850Z,160
2017-07-28T06:41:34.316Z,170
2017-07-28T06:41:59.794Z,175
2017-07-28T06:42:25.326Z,185
2017-07-28T06:42:50.805Z,195
2017-07-28T06:43:16.296Z,195
2017-07-28T06:43:41.746Z,205
2017-07-28T06:44:07.241Z,175
2017-07-28T06:44:32.717Z,165
2017-07-28T06:44:58.195Z,180
2017-07-28T06:45:23.690Z,185
2017-07-28T06:45:49.137Z,205
2017-07-28T06:46:14.581Z,235
2017-07-28T06:46:40.046Z,240
2017-07-28T06:47:05.522Z,250
2017-07-28T06:47:31.003Z,220
2017-07-28T06:47:56.465Z,185
2017-07-28T06:48:21.966Z,170
2017-07-28T06:48:47.429Z,140
2017-07-28T06:49:12.891Z,170
2017-07-28T06:49:38.391Z,205
2017-07-28T06:50:03.884Z,215
2017-07-28T06:50:29.368Z,245
2017-07-28T06:50:54.802Z,260
2017-07-28T06:51:20.275Z,250
2017-07-28T06:51:45.751Z,260
2017-07-28T06:52:11.232Z,220
2017-07-28T06:52:36.745Z,240
2017-07-28T06:53:02.240Z,230
2017-07-28T06:53:27.687Z,190
2017-07-28T06:53:53.115Z,160
2017-07-28T06:54:18.579Z,150
2017-07-28T06:54:44.066Z,170
2017-07-28T06:55:09.547Z,165
2017-07-28T06:55:35.003Z,185
2017-07-28T06:56:00.469Z,220
2017-07-28T06:56:25.912Z,195
2017-07-28T06:56:51.399Z,205
2017-07-28T06:57:16.881Z,245
2017-07-28T06:57:42.341Z,245
2017-07-28T06:58:07.863Z,240
2017-07-28T06:58:33.325Z,240
2017-07-28T06:58:58.803Z,200
2017-07-28T06:59:24.271Z,160
2017-07-28T06:59:49.752Z,185
2017-07-28T07:00:15.233Z,235
2017-07-28T07:00:40.678Z,245
2017-07-28T07:01:06.156Z,255
2017-07-28T07:01:31.647Z,250
2017-07-28T07:01:57.126Z,265
2017-07-28T07:02:22.576Z,230
2017-07-28T07:02:48.032Z,185
2017-07-28T07:03:13.507Z,235
2017-07-28T07:03:38.974Z,280
2017-07-28T07:04:04.473Z,270
2017-07-28T07:04:29.940Z,245
2017-07-28T07:04:55.427Z,270
2017-07-28T07:05:20.942Z,285
2017-07-28T07:05:46.432Z,255
2017-07-28T07:07:00.213Z,275
2017-07-28T07:07:25.732Z,290
2017-07-28T07:07:51.183Z,275
2017-07-28T07:08:16.655Z,300
2017-07-28T07:08:42.141Z,255
2017-07-28T07:09:07.610Z,210
2017-07-28T07:09:33.099Z,195
2017-07-28T07:09:58.565Z,200
2017-07-28T07:10:24.043Z,205
2017-07-28T07:10:49.506Z,225
2017-07-28T07:11:14.962Z,200
2017-07-28T07:11:40.442Z,165
2017-07-28T07:12:05.922Z,155
2017-07-28T07:12:31.397Z,165
2017-07-28T07:12:56.903Z,170
2017-07-28T07:13:22.378Z,180
2017-07-28T07:13:47.841Z,185
2017-07-28T07:14:13.328Z,190
2017-07-28T07:14:38.808Z,160
2017-07-28T07:15:04.285Z,155
2017-07-28T07:15:29.752Z,170
2017-07-28T07:15:55.239Z,160
2017-07-28T07:16:20.710Z,165
2017-07-28T07:16:46.185Z,170
2017-07-28T07:17:11.670Z,165
2017-07-28T07:17:37.155Z,185
2017-07-28T07:18:02.648Z,205
2017-07-28T07:18:28.121Z,190
2017-07-28T07:18:53.636Z,145
2017-07-28T07:19:19.128Z,160
2017-07-28T07:19:44.612Z,175
2017-07-28T07:20:10.093Z,190
2017-07-28T07:20:35.545Z,225
2017-07-28T07:21:01.024Z,235
2017-07-28T07:21:26.504Z,205
2017-07-28T07:21:51.944Z,160
2017-07-28T07:22:17.431Z,175
2017-07-28T07:22:42.872Z,220
2017-07-28T07:23:08.385Z,225
2017-07-28T07:23:33.846Z,210
2017-07-28T07:23:59.338Z,240
2017-07-28T07:24:24.791Z,250
2017-07-28T07:24:50.267Z,225
2017-07-28T07:25:15.746Z,215
2017-07-28T07:25:41.250Z,200
2017-07-28T07:26:06.718Z,195
2017-07-28T07:26:32.155Z,215
2017-07-28T07:26:57.661Z,220
2017-07-28T07:27:23.142Z,235
2017-07-28T07:27:48.582Z,275
2017-07-28T07:28:14.069Z,260
2017-07-28T07:28:39.536Z,205
2017-07-28T07:29:05.027Z,175
2017-07-28T07:29:30.488Z,180
2017-07-28T07:29:55.983Z,210
2017-07-28T07:30:21.457Z,230
2017-07-28T07:30:46.930Z,210
2017-07-28T07:31:12.430Z,195
2017-07-28T07:31:37.958Z,190
2017-07-28T07:32:03.375Z,185
2017-07-28T07:32:28.869Z,205
2017-07-28T07:32:54.315Z,210
2017-07-28T07:33:19.779Z,235
2017-07-28T07:33:45.251Z,270
2017-07-28T07:34:10.729Z,250
2017-07-28T07:34:36.184Z,205
2017-07-28T07:35:01.650Z,205
2017-07-28T07:35:27.124Z,200
2017-07-28T07:35:52.607Z,210
2017-07-28T07:36:18.082Z,260
2017-07-28T07:36:43.585Z,310
2017-07-28T07:37:09.014Z,335
2017-07-28T07:37:34.506Z,310
2017-07-28T07:38:00.014Z,280
2017-07-28T07:38:25.493Z,245
2017-07-28T07:38:50.941Z,235
2017-07-28T07:39:16.433Z,240
2017-07-28T07:39:41.911Z,235
2017-07-28T07:40:07.415Z,265
2017-07-28T07:40:32.908Z,295
2017-07-28T07:40:58.373Z,320
2017-07-28T07:41:23.826Z,320
2017-07-28T07:41:49.274Z,270
2017-07-28T07:42:14.757Z,265
2017-07-28T07:42:40.266Z,245
2017-07-28T07:43:05.747Z,205
2017-07-28T07:43:31.190Z,180
2017-07-28T07:43:56.669Z,195
2017-07-28T07:44:22.153Z,195
2017-07-28T07:44:47.650Z,225
2017-07-28T07:45:13.144Z,255
2017-07-28T07:45:38.603Z,265
2017-07-28T07:46:04.093Z,275
2017-07-28T07:46:29.574Z,305
2017-07-28T07:46:55.040Z,280
2017-07-28T07:47:20.517Z,265
2017-07-28T07:48:44.473Z,150
2017-07-28T07:49:09.939Z,135
2017-07-28T07:49:35.411Z,125
2017-07-28T07:50:00.896Z,140
2017-07-28T07:50:26.364Z,165
2017-07-28T07:50:51.861Z,185
2017-07-28T07:51:17.324Z,205
2017-07-28T07:51:42.829Z,195
2017-07-28T07:52:08.288Z,150
2017-07-28T07:52:33.728Z,130
2017-07-28T07:52:59.198Z,150
2017-07-28T07:53:24.667Z,175
2017-07-28T07:53:50.097Z,175
2017-07-28T07:54:15.574Z,170
2017-07-28T07:54:41.035Z,180
2017-07-28T07:55:06.482Z,195
2017-07-28T07:55:31.945Z,205
2017-07-28T07:55:57.402Z,230
2017-07-28T07:56:22.901Z,225
2017-07-28T07:56:48.360Z,225
2017-07-28T07:57:13.829Z,210
2017-07-28T07:57:39.281Z,220
2017-07-28T07:58:04.733Z,205
2017-07-28T07:58:30.251Z,205
2017-07-28T07:58:55.728Z,225
2017-07-28T07:59:21.205Z,255
2017-07-28T07:59:46.670Z,295
2017-07-28T08:00:12.138Z,245
2017-07-28T08:00:37.631Z,260
2017-07-28T08:01:03.079Z,275
2017-07-28T08:01:28.549Z,280
2017-07-28T08:01:54.011Z,290
2017-07-28T08:02:19.503Z,275
2017-07-28T08:02:44.991Z,230
2017-07-28T08:03:10.430Z,255
2017-07-28T08:03:35.908Z,315
2017-07-28T08:04:01.399Z,290
2017-07-28T08:04:26.844Z,260
2017-07-28T08:04:52.335Z,270
2017-07-28T08:05:17.815Z,275
2017-07-28T08:05:43.288Z,275
2017-07-28T08:06:08.788Z,250
2017-07-28T08:06:34.278Z,240
2017-07-28T08:06:59.743Z,245
2017-07-28T08:07:25.203Z,275
2017-07-28T08:07:50.680Z,280
2017-07-28T08:08:16.161Z,225
2017-07-28T08:08:41.679Z,170
2017-07-28T08:09:07.167Z,155
2017-07-28T08:09:32.627Z,195
2017-07-28T08:09:58.106Z,245
2017-07-28T08:10:23.604Z,255
2017-07-28T08:10:49.098Z,255
2017-07-28T08:11:14.576Z,245
2017-07-28T08:11:40.059Z,240
2017-07-28T08:12:05.565Z,235
2017-07-28T08:12:31.057Z,235
2017-07-28T08:12:56.564Z,225
2017-07-28T08:13:22.063Z,175
2017-07-28T08:13:47.575Z,145
2017-07-28T08:14:13.043Z,135
2017-07-28T08:14:38.498Z,110
2017-07-28T08:15:03.980Z,95
2017-07-28T08:15:29.465Z,115
2017-07-28T08:15:54.926Z,165
2017-07-28T08:16:20.422Z,195
2017-07-28T08:16:45.908Z,215
2017-07-28T08:17:11.410Z,230
2017-07-28T08:17:36.871Z,230
2017-07-28T08:18:02.382Z,235
2017-07-28T08:18:27.858Z,245
2017-07-28T08:18:53.334Z,220
2017-07-28T08:19:18.775Z,185
2017-07-28T08:19:44.244Z,195
2017-07-28T08:20:09.724Z,210
2017-07-28T08:20:35.205Z,225
2017-07-28T08:21:00.657Z,225
2017-07-28T08:21:26.114Z,210
2017-07-28T08:21:51.600Z,225
2017-07-28T08:22:17.085Z,240
2017-07-28T08:22:42.544Z,260
2017-07-28T08:23:08.008Z,255
2017-07-28T08:23:33.464Z,255
2017-07-28T08:23:58.945Z,265
2017-07-28T08:24:24.407Z,250
2017-07-28T08:24:49.879Z,195
2017-07-28T08:25:15.326Z,140
2017-07-28T08:25:40.775Z,120
2017-07-28T08:26:06.242Z,145
2017-07-28T08:26:31.697Z,155
2017-07-28T08:26:57.204Z,160
2017-07-28T08:27:22.649Z,180
2017-07-28T08:27:48.136Z,210
2017-07-28T08:28:13.624Z,205
2017-07-28T08:28:39.097Z,180
2017-07-28T08:29:04.550Z,200
2017-07-28T08:29:30.036Z,195
2017-07-28T08:29:55.495Z,220
2017-07-28T08:30:20.965Z,235
2017-07-28T08:30:46.443Z,245
2017-07-28T08:31:11.900Z,255
2017-07-28T08:31:37.426Z,250
2017-07-28T08:32:02.874Z,265
2017-07-28T08:32:28.338Z,270
2017-07-28T08:32:53.844Z,270
2017-07-28T08:33:19.334Z,255
2017-07-28T08:33:44.791Z,235
2017-07-28T08:34:10.254Z,200
2017-07-28T08:34:35.740Z,160
2017-07-28T08:35:01.204Z,190
2017-07-28T08:35:26.685Z,260
2017-07-28T08:35:52.128Z,330
2017-07-28T08:36:17.602Z,300
2017-07-28T08:36:43.067Z,270
2017-07-28T08:37:08.529Z,265
2017-07-28T08:37:33.969Z,275
2017-07-28T08:37:59.471Z,270
2017-07-28T08:38:24.941Z,265
2017-07-28T08:38:50.440Z,280
2017-07-28T08:39:15.906Z,270
2017-07-28T08:39:41.384Z,245
2017-07-28T08:40:06.888Z,240
2017-07-28T08:40:32.337Z,255
2017-07-28T08:40:57.806Z,265
2017-07-28T08:41:23.264Z,290
2017-07-28T08:41:48.735Z,290
2017-07-28T08:42:14.178Z,300
2017-07-28T08:42:39.659Z,320
2017-07-28T08:43:05.117Z,320
2017-07-28T08:43:30.583Z,310
2017-07-28T08:43:56.067Z,310
2017-07-28T08:44:21.505Z,300
2017-07-28T08:44:46.982Z,295
2017-07-28T08:45:12.486Z,295
2017-07-28T08:45:37.924Z,315
2017-07-28T08:46:03.396Z,275
2017-07-28T08:46:28.905Z,270
2017-07-28T08:46:54.363Z,235
2017-07-28T08:47:19.868Z,230
2017-07-28T08:47:45.319Z,230
2017-07-28T08:48:10.791Z,225
2017-07-28T08:48:36.258Z,245
2017-07-28T08:49:01.764Z,245
2017-07-28T08:49:27.211Z,245
2017-07-28T08:49:52.701Z,245
2017-07-28T08:50:18.160Z,270
2017-07-28T08:50:43.620Z,250
2017-07-28T08:51:09.095Z,250
2017-07-28T08:51:34.565Z,260
2017-07-28T08:52:00.004Z,280
2017-07-28T08:52:25.490Z,295
2017-07-28T08:52:50.924Z,270
2017-07-28T08:53:16.390Z,265
2017-07-28T08:53:41.852Z,300
2017-07-28T08:54:07.298Z,300
2017-07-28T08:54:32.758Z,305
2017-07-28T08:54:58.236Z,300
2017-07-28T08:55:23.671Z,290
2017-07-28T08:55:49.138Z,295
2017-07-28T08:56:14.588Z,295
2017-07-28T08:56:40.029Z,250
2017-07-28T08:57:05.488Z,210
2017-07-28T08:57:30.948Z,200
2017-07-28T08:57:56.406Z,190
2017-07-28T08:58:21.870Z,190
2017-07-28T08:58:47.359Z,185
2017-07-28T08:59:12.818Z,185
2017-07-28T08:59:38.314Z,170
2017-07-28T09:00:03.847Z,210
2017-07-28T09:00:29.251Z,225
2017-07-28T09:00:54.718Z,225
2017-07-28T09:01:20.215Z,225
2017-07-28T09:01:45.632Z,235
2017-07-28T09:02:11.084Z,230
2017-07-28T09:02:36.557Z,250
2017-07-28T09:03:02.032Z,280
2017-07-28T09:03:27.464Z,280
2017-07-28T09:03:52.916Z,280
2017-07-28T09:04:18.396Z,280
2017-07-28T09:04:43.870Z,250
2017-07-28T09:05:09.335Z,200
2017-07-28T09:05:34.785Z,185
2017-07-28T09:06:00.235Z,185
2017-07-28T09:06:25.740Z,190
2017-07-28T09:06:51.186Z,165
2017-07-28T09:07:16.724Z,160
2017-07-28T09:07:42.154Z,155
2017-07-28T09:08:07.625Z,165
2017-07-28T09:08:33.088Z,200
2017-07-28T09:08:58.551Z,260
2017-07-28T09:09:24.029Z,325
2017-07-28T09:09:49.495Z,385
2017-07-28T09:10:14.930Z,450
2017-07-28T09:10:40.440Z,475
2017-07-28T09:11:05.908Z,430
2017-07-28T09:11:31.342Z,350
2017-07-28T09:11:56.834Z,300
2017-07-28T09:12:22.303Z,265
2017-07-28T09:12:47.776Z,260
2017-07-28T09:13:13.217Z,350
2017-07-28T09:13:38.667Z,340
2017-07-28T09:14:04.117Z,280
2017-07-28T09:14:29.597Z,255
2017-07-28T09:14:55.024Z,245
2017-07-28T09:15:20.518Z,240
2017-07-28T09:15:45.995Z,230
2017-07-28T09:16:11.412Z,215
2017-07-28T09:16:36.897Z,215
2017-07-28T09:17:02.401Z,225
2017-07-28T09:17:27.871Z,260
2017-07-28T09:17:53.357Z,310
2017-07-28T09:18:18.795Z,325
2017-07-28T09:18:44.267Z,335
2017-07-28T09:19:09.729Z,315
2017-07-28T09:19:35.195Z,300
2017-07-28T09:20:00.660Z,250
2017-07-28T09:20:26.139Z,240
2017-07-28T09:20:51.591Z,260
2017-07-28T09:21:17.037Z,260
2017-07-28T09:21:42.517Z,245
2017-07-28T09:22:07.961Z,220
2017-07-28T09:22:33.448Z,225
2017-07-28T09:22:58.908Z,215
2017-07-28T09:23:24.409Z,190
2017-07-28T09:23:49.864Z,190
2017-07-28T09:24:15.330Z,210
2017-07-28T09:24:40.782Z,230
2017-07-28T09:25:06.214Z,210
2017-07-28T09:25:31.653Z,205
2017-07-28T09:25:57.146Z,245
2017-07-28T09:26:22.603Z,275
2017-07-28T09:26:48.076Z,300
2017-07-28T09:27:13.527Z,275
2017-07-28T09:27:38.978Z,260
2017-07-28T09:28:04.416Z,260
2017-07-28T09:28:29.878Z,265
2017-07-28T09:28:55.327Z,250
2017-07-28T09:29:20.807Z,230
2017-07-28T09:29:46.290Z,225
2017-07-28T09:30:11.737Z,265
2017-07-28T09:30:37.187Z,320
2017-07-28T09:31:02.662Z,300
2017-07-28T09:31:28.088Z,295
2017-07-28T09:31:53.553Z,280
2017-07-28T09:32:19.032Z,225
2017-07-28T09:32:44.532Z,185
2017-07-28T09:33:09.998Z,165
2017-07-28T09:33:35.441Z,180
2017-07-28T09:34:00.924Z,225
2017-07-28T09:34:26.385Z,250
2017-07-28T09:34:51.845Z,270
2017-07-28T09:35:17.330Z,265
2017-07-28T09:35:42.758Z,240
2017-07-28T09:36:08.218Z,255
2017-07-28T09:36:33.703Z,300
2017-07-28T09:36:59.160Z,365
2017-07-28T09:37:24.618Z,380
2017-07-28T09:37:50.076Z,370
2017-07-28T09:38:15.570Z,325
2017-07-28T09:38:41.023Z,305
2017-07-28T09:39:06.508Z,250
2017-07-28T09:39:31.936Z,185
2017-07-28T09:39:57.421Z,150
2017-07-28T09:40:22.897Z,110
2017-07-28T09:40:48.331Z,100
2017-07-28T09:41:13.821Z,110
2017-07-28T09:41:39.225Z,140
2017-07-28T09:42:04.714Z,165
2017-07-28T09:42:30.201Z,190
2017-07-28T09:42:55.681Z,205
2017-07-28T09:43:21.129Z,200
2017-07-28T09:43:46.607Z,195
2017-07-28T09:44:12.093Z,210
2017-07-28T09:44:37.575Z,235
2017-07-28T09:45:03.059Z,245
2017-07-28T09:45:28.508Z,225
2017-07-28T09:45:54.014Z,205
2017-07-28T09:46:19.495Z,190
2017-07-28T09:46:44.939Z,180
2017-07-28T09:47:10.433Z,155
2017-07-28T09:47:35.891Z,135
2017-07-28T09:48:01.370Z,145
2017-07-28T09:48:26.846Z,205
2017-07-28T09:48:52.291Z,270
2017-07-28T09:49:17.729Z,340
2017-07-28T09:49:43.192Z,345
2017-07-28T09:50:08.688Z,335
2017-07-28T09:50:34.141Z,340
2017-07-28T09:50:59.612Z,365
2017-07-28T09:51:25.054Z,360
2017-07-28T09:51:50.497Z,365
2017-07-28T09:52:16.003Z,380
2017-07-28T09:52:41.562Z,395
2017-07-28T09:53:07.043Z,445
2017-07-28T09:53:32.502Z,445
2017-07-28T09:53:57.996Z,435
2017-07-28T09:54:23.425Z,425
2017-07-28T09:54:48.883Z,375
2017-07-28T09:55:14.353Z,335
2017-07-28T09:55:39.838Z,290
2017-07-28T09:56:05.345Z,260
2017-07-28T09:56:30.816Z,250
2017-07-28T09:56:56.274Z,300
2017-07-28T09:57:21.709Z,365
2017-07-28T09:57:47.181Z,400
2017-07-28T09:58:12.651Z,380
2017-07-28T09:58:38.101Z,355
2017-07-28T09:59:03.575Z,355
2017-07-28T09:59:29.078Z,355
2017-07-28T09:59:54.551Z,330
2017-07-28T10:00:20.004Z,315
2017-07-28T10:00:45.478Z,315
2017-07-28T10:01:10.951Z,320
2017-07-28T10:01:36.428Z,295
2017-07-28T10:02:01.863Z,230
2017-07-28T10:02:27.358Z,190
2017-07-28T10:02:52.765Z,175
2017-07-28T10:03:18.234Z,150
2017-07-28T10:03:43.733Z,150
2017-07-28T10:04:09.169Z,175
2017-07-28T10:04:34.639Z,225
2017-07-28T10:05:00.091Z,240
2017-07-28T10:05:25.544Z,215
2017-07-28T10:05:51.050Z,165
2017-07-28T10:06:16.533Z,175
2017-07-28T10:06:41.997Z,160
2017-07-28T10:07:07.454Z,135
2017-07-28T10:07:32.927Z,140
2017-07-28T10:07:58.379Z,125
2017-07-28T10:08:23.833Z,135
2017-07-28T10:08:49.325Z,130
2017-07-28T10:09:14.768Z,95
2017-07-28T10:09:40.224Z,90
2017-07-28T10:10:05.672Z,90
2017-07-28T10:10:31.153Z,95
2017-07-28T10:10:56.656Z,120
2017-07-28T10:11:22.084Z,165
2017-07-28T10:11:47.532Z,200
2017-07-28T10:12:12.985Z,225
2017-07-28T10:12:38.447Z,200
2017-07-28T10:13:03.918Z,165
2017-07-28T10:13:29.391Z,135
2017-07-28T10:13:54.872Z,125
2017-07-28T10:14:20.343Z,125
2017-07-28T10:14:45.782Z,145
2017-07-28T10:15:11.221Z,155
2017-07-28T10:15:36.685Z,175
2017-07-28T10:16:02.185Z,205
2017-07-28T10:16:27.633Z,205
2017-07-28T10:16:53.068Z,185
2017-07-28T10:17:18.569Z,170
2017-07-28T10:17:44.028Z,170
2017-07-28T10:18:09.493Z,185
2017-07-28T10:18:34.950Z,175
2017-07-28T10:19:00.422Z,180
2017-07-28T10:19:25.852Z,175
2017-07-28T10:19:51.322Z,160
2017-07-28T10:20:16.801Z,160
2017-07-28T10:20:42.250Z,160
2017-07-28T10:21:07.713Z,160
2017-07-28T10:21:33.188Z,170
2017-07-28T10:21:58.675Z,190
2017-07-28T10:22:24.134Z,195
2017-07-28T10:22:49.562Z,205
2017-07-28T10:23:15.051Z,180
2017-07-28T10:23:40.517Z,210
2017-07-28T10:24:05.981Z,220
2017-07-28T10:24:31.411Z,220
2017-07-28T10:24:56.904Z,245
2017-07-28T10:25:22.381Z,275
2017-07-28T10:25:47.802Z,300
2017-07-28T10:26:13.255Z,325
2017-07-28T10:26:38.721Z,360
2017-07-28T10:27:04.165Z,340
2017-07-28T10:27:29.630Z,330
2017-07-28T10:27:55.082Z,335
2017-07-28T10:28:20.557Z,345
2017-07-28T10:28:46.014Z,335
2017-07-28T10:29:11.530Z,310
2017-07-28T10:29:36.953Z,280
2017-07-28T10:30:02.462Z,280
2017-07-28T10:30:27.874Z,310
2017-07-28T10:30:53.344Z,345
2017-07-28T10:31:18.803Z,355
2017-07-28T10:31:44.300Z,335
2017-07-28T10:32:09.747Z,310
2017-07-28T10:32:35.232Z,275
2017-07-28T10:33:00.702Z,260
2017-07-28T10:33:26.181Z,285
2017-07-28T10:33:51.600Z,315
2017-07-28T10:34:17.047Z,330
2017-07-28T10:34:42.490Z,320
2017-07-28T10:35:07.986Z,305
2017-07-28T10:35:33.407Z,280
2017-07-28T10:35:58.848Z,255
2017-07-28T10:36:24.311Z,215
2017-07-28T10:36:49.779Z,190
2017-07-28T10:37:15.238Z,210
2017-07-28T10:37:40.689Z,225
2017-07-28T10:38:06.157Z,270
2017-07-28T10:38:31.643Z,285
2017-07-28T10:38:57.083Z,310
2017-07-28T10:39:22.519Z,295
2017-07-28T10:39:47.978Z,270
2017-07-28T10:40:13.460Z,235
2017-07-28T10:40:38.909Z,245
2017-07-28T10:41:04.360Z,270
2017-07-28T10:41:29.820Z,280
2017-07-28T10:41:55.296Z,255
2017-07-28T10:42:20.776Z,250
2017-07-28T10:42:46.225Z,230
2017-07-28T10:43:11.681Z,185
2017-07-28T10:43:37.137Z,170
2017-07-28T10:44:02.630Z,155
2017-07-28T10:44:28.059Z,150
2017-07-28T10:44:53.507Z,150
2017-07-28T10:45:18.964Z,165
2017-07-28T10:45:44.426Z,180
2017-07-28T10:46:09.917Z,185
2017-07-28T10:46:35.355Z,195
2017-07-28T10:47:00.828Z,225
2017-07-28T10:47:26.282Z,260
2017-07-28T10:47:51.755Z,260
2017-07-28T10:48:17.220Z,250
2017-07-28T10:48:42.702Z,220
2017-07-28T10:49:08.327Z,195
2017-07-28T10:49:33.780Z,170
2017-07-28T10:49:59.253Z,155
2017-07-28T10:50:24.714Z,155
2017-07-28T10:50:50.191Z,165
2017-07-28T10:51:15.696Z,180
2017-07-28T10:51:41.152Z,195
2017-07-28T10:52:06.597Z,205
2017-07-28T10:52:32.077Z,225
2017-07-28T10:52:57.503Z,230
2017-07-28T10:53:22.982Z,230
2017-07-28T10:53:48.496Z,230
2017-07-28T10:54:13.936Z,220
2017-07-28T10:54:39.413Z,210
2017-07-28T10:55:04.915Z,215
2017-07-28T10:55:30.389Z,235
2017-07-28T10:55:55.858Z,230
2017-07-28T10:56:21.312Z,205
2017-07-28T10:56:46.772Z,175
2017-07-28T10:57:12.232Z,145
2017-07-28T10:57:37.718Z,130
2017-07-28T10:58:03.188Z,120
2017-07-28T10:58:28.640Z,100
2017-07-28T10:58:54.080Z,80
2017-07-28T10:59:19.556Z,70
2017-07-28T10:59:45.019Z,65
2017-07-28T11:00:10.475Z,65
2017-07-28T11:00:35.968Z,65
2017-07-28T11:01:01.484Z,65
2017-07-28T11:01:26.917Z,65
2017-07-28T11:01:52.371Z,65
2017-07-28T11:02:17.846Z,60
2017-07-28T11:02:43.304Z,50
2017-07-28T11:03:08.777Z,50
2017-07-28T11:03:34.234Z,50
2017-07-28T11:03:59.700Z,50
2017-07-28T11:04:25.183Z,60
2017-07-28T11:04:50.646Z,100
2017-07-28T11:05:16.094Z,155
2017-07-28T11:05:41.537Z,215
2017-07-28T11:06:07.008Z,250
2017-07-28T11:06:32.518Z,280
2017-07-28T11:06:57.919Z,290
2017-07-28T11:07:23.411Z,290
2017-07-28T11:07:48.877Z,290
2017-07-28T11:08:14.315Z,305
2017-07-28T11:08:39.780Z,315
2017-07-28T11:09:05.221Z,325
2017-07-28T11:09:30.686Z,330
2017-07-28T11:09:56.157Z,335
2017-07-28T11:10:21.619Z,335
2017-07-28T11:10:47.090Z,335
2017-07-28T11:11:12.535Z,335
2017-07-28T11:11:37.983Z,330
2017-07-28T11:12:03.459Z,315
2017-07-28T11:12:28.906Z,290
2017-07-28T11:12:54.383Z,275
2017-07-28T11:13:19.873Z,270
2017-07-28T11:13:45.329Z,280
2017-07-28T11:14:10.778Z,295
2017-07-28T11:14:36.269Z,315
2017-07-28T11:15:01.725Z,325
2017-07-28T11:15:27.207Z,335
2017-07-28T11:15:52.766Z,335
2017-07-28T11:16:18.135Z,330
2017-07-28T11:16:43.603Z,330
2017-07-28T11:17:09.064Z,325
2017-07-28T11:17:34.526Z,320
2017-07-28T11:17:59.958Z,320
2017-07-28T11:18:25.408Z,315
2017-07-28T11:18:50.877Z,315
2017-07-28T11:19:16.353Z,305
2017-07-28T11:19:41.816Z,295
2017-07-28T11:20:07.251Z,290
2017-07-28T11:20:32.721Z,295
2017-07-28T11:20:58.191Z,290
2017-07-28T11:21:23.686Z,305
2017-07-28T11:21:49.116Z,320
2017-07-28T11:22:14.593Z,335
2017-07-28T17:19:14.860Z,50
2017-07-28T17:19:40.354Z,45
2017-07-28T17:20:05.831Z,45
2017-07-28T17:20:31.317Z,45
2017-07-28T17:20:56.779Z,45
2017-07-28T17:22:20.760Z,50
2017-07-28T17:22:46.225Z,50
2017-07-28T17:23:11.701Z,60